Terminal Aerodrome Forecast
Issued by NWS

Home | Current Version | Previous Version | Text Only | Print | Product List | Glossary On
Versions: 1 2 3 4 5 6 7 8 9 10 11 12 13 14 15 16 17
000
FTUS42 KJAX 051721
TAFVQQ
TAF
KVQQ 051721Z 0518/0618 08014KT P6SM VCSH BKN035
     FM060100 05005KT P6SM SCT040 BKN250
     FM061000 03005KT P6SM BKN050
     FM061500 04012KT P6SM VCSH BKN035=

USA.gov is the U.S. government's official web portal to all federal, state and local government web resources and services.